Flight Track Log - Related Links

Times and Time Zones

All times are in EDT time to prevent confusion due to time zone crossing. See the AAL362 flight status page for this flight to view local times or setup timezone preferences in your user account.

Time Position Orientation Groundspeed Altitude Reporting Facility
EDT Latitude Longitude Course Direction KTS MPH feet Rate Location/Type
Sat 03:59:10 PM 42.0000 -87.9333 84° East 159 183 1,900  Level Chicago TRACON
Sat 04:00:04 PM 42.0333 -87.9000 37° Northeast 225 259 3,400 1,947 Climbing Chicago TRACON
Sat 04:01:00 PM 41.9529 -87.3959 95° East  Level FlightAware Approximate
Sat 04:01:41 PM 42.1289 -87.7928 40° Northeast 276 318 6,800  Level Chicago Center
Sat 04:02:00 PM 41.9407 -87.2285 96° East  Level FlightAware Approximate
Sat 04:02:43 PM 42.1225 -87.6833 94° East 310 357 9,700  Level Chicago Center
Sat 04:03:00 PM 41.9333 -87.0608 90° East  Level FlightAware Approximate
Sat 04:03:44 PM 42.0878 -87.5625 111° Southeast 340 391 12,300  Level Chicago Center
Sat 04:04:00 PM 41.9353 -86.8927 84° East  Level FlightAware Approximate
Sat 04:04:46 PM 42.0522 -87.4339 110° East 361 415 14,000  Level Chicago Center
Sat 04:05:48 PM 42.0086 -87.2856 112° Southeast 416 479 15,800 2,146 Climbing Chicago Center
Sat 04:06:49 PM 41.9564 -87.1011 111° Southeast 437 503 18,400 2,195 Climbing Chicago Center
Sat 04:07:51 PM 41.9464 -86.9339 95° East 450 518 20,300 1,887 Climbing Chicago Center
Sat 04:08:53 PM 41.9494 -86.7619 89° East 461 531 22,300 1,694 Climbing Chicago Center
Sat 04:09:55 PM 41.9489 -86.5986 90° East 471 542 23,800 1,268 Climbing Chicago Center
Sat 04:10:56 PM 41.9531 -86.4197 88° East 481 554 24,900 585 Climbing Chicago Center
Sat 04:11:58 PM 41.9553 -86.2411 89° East 479 551 25,000 48 Climbing Chicago Center
Sat 04:13:00 PM 41.9369 -86.0253 96° East 485 558 25,000  Level Chicago Center
Sat 04:14:01 PM 41.9219 -85.8461 96° East 483 556 25,000  Level Chicago Center
Sat 04:15:03 PM 41.9044 -85.6664 97° East 482 555 25,000  Level Chicago Center
Sat 04:16:05 PM 41.8875 -85.4861 97° East 483 556 25,000  Level Chicago Center
Sat 04:17:07 PM 41.8692 -85.3058 98° East 483 556 25,000  Level Chicago Center
Sat 04:18:08 PM 41.8522 -85.1253 97° East 482 555 25,000  Level Chicago Center
Sat 04:18:47 PM 41.8411 -85.0125 97° East 478 550 25,000  Level Cleveland Center
Sat 04:19:47 PM 41.8247 -84.8331 97° East 478 550 25,000  Level Cleveland Center
Sat 04:20:47 PM 41.8042 -84.6533 99° East 478 550 25,000  Level Cleveland Center
Sat 04:21:47 PM 41.7833 -84.4764 99° East 478 550 25,000  Level Cleveland Center
Sat 04:22:47 PM 41.7789 -84.2953 92° East 478 550 25,000  Level Cleveland Center
Sat 04:23:47 PM 41.7747 -84.1000 92° East 483 556 25,000  Level Cleveland Center
Sat 04:24:47 PM 41.7736 -83.9217 90° East 483 556 25,000  Level Cleveland Center
Sat 04:25:47 PM 41.7725 -83.7406 90° East 478 550 25,000  Level Cleveland Center
Sat 04:26:47 PM 41.7692 -83.5567 91° East 483 556 25,000  Level Cleveland Center
Sat 04:27:47 PM 41.7528 -83.3806 97° East 483 556 25,000  Level Cleveland Center
Sat 04:28:47 PM 41.7358 -83.2128 98° East 488 562 25,000  Level Cleveland Center
Sat 04:29:47 PM 41.7192 -83.0311 97° East 488 562 25,000  Level Cleveland Center
Sat 04:30:47 PM 41.7000 -82.8469 98° East 488 562 25,000  Level Cleveland Center
Sat 04:31:47 PM 41.6825 -82.6656 97° East 488 562 25,000  Level Cleveland Center
Sat 04:32:47 PM 41.6628 -82.4842 98° East 493 567 25,000  Level Cleveland Center
Sat 04:33:47 PM 41.6447 -82.3031 98° East 493 567 25,000  Level Cleveland Center
Sat 04:34:47 PM 41.6225 -82.1025 98° East 487 560 25,000  Level Cleveland Center
Sat 04:35:47 PM 41.6039 -81.9217 98° East 492 566 25,000  Level Cleveland Center
Sat 04:36:47 PM 41.5831 -81.7378 99° East 492 566 25,000  Level Cleveland Center
Sat 04:37:47 PM 41.5639 -81.5572 98° East 492 566 25,000  Level Cleveland Center
Sat 04:38:47 PM 41.5403 -81.3739 100° East 492 566 25,000  Level Cleveland Center
Sat 04:39:47 PM 41.5225 -81.2100 98° East 492 566 25,000  Level Cleveland Center
Sat 04:40:47 PM 41.5047 -81.0294 97° East 492 566 25,000  Level Cleveland Center
Sat 04:41:47 PM 41.4886 -80.8436 97° East 492 566 25,000  Level Cleveland Center
Sat 04:42:47 PM 41.4722 -80.6608 97° East 498 573 25,000 600 Level Cleveland Center
Sat 04:43:47 PM 41.4556 -80.4778 97° East 503 579 26,200 1,000 Climbing Cleveland Center
Sat 04:44:47 PM 41.4386 -80.2894 97° East 503 579 27,000 900 Climbing Cleveland Center
Sat 04:45:47 PM 41.4192 -80.0903 97° East 521 600 28,000 1,000 Climbing Cleveland Center
Sat 04:46:47 PM 41.3969 -79.8689 98° East 536 617 29,000 500 Climbing Cleveland Center
Sat 04:47:47 PM 41.3769 -79.6644 97° East 547 629 29,000  Level Cleveland Center
Sat 04:48:47 PM 41.3606 -79.4794 97° East 552 635 29,000  Level Cleveland Center
Sat 04:49:47 PM 41.3353 -79.2586 99° East 557 641 29,000  Level Cleveland Center
Sat 04:50:47 PM 41.3161 -79.0544 97° East 557 641 29,000  Level Cleveland Center
Sat 04:51:47 PM 41.2969 -78.8722 98° East 557 641 29,000  Level Cleveland Center
Sat 04:52:47 PM 41.2750 -78.6711 98° East 557 641 29,000  Level Cleveland Center
Sat 04:54:34 PM 41.2331 -78.2950 98° East 571 657 29,000  Level New York Center
Sat 04:55:35 PM 41.2128 -78.1161 99° East 566 651 29,000  Level New York Center
Sat 04:56:36 PM 41.1875 -77.9178 100° East 551 634 29,000 -99 Level New York Center
Sat 04:57:36 PM 41.1636 -77.7222 99° East 544 626 28,800 -1,000 Descending New York Center
Sat 04:58:36 PM 41.1372 -77.5292 100° East 538 619 27,000 -2,033 Descending New York Center
Sat 04:59:37 PM 41.1097 -77.3172 100° East 533 613 24,700 -2,186 Descending New York Center
Sat 05:00:34 PM 41.0844 -77.1275 100° East 528 608 22,700 -1,714 Descending New York Center
Sat 05:01:36 PM 41.0589 -76.9433 100° East 523 602 21,300 -1,400 Descending New York Center
Sat 05:02:34 PM 41.0367 -76.7681 99° East 510 587 19,900 -1,068 Descending New York Center
Sat 05:03:34 PM 41.0056 -76.5947 103° East 492 566 19,200 -331 Descending New York Center
Sat 05:05:00 PM 40.9449 -76.3892 111° Southeast  Level FlightAware Approximate
Sat 05:05:35 PM 40.9275 -76.2694 111° Southeast 456 525 18,900  Level New York Center
Sat 05:06:34 PM 40.8908 -76.1100 107° East 456 525 17,000 -1,815 Descending New York Center
Sat 05:07:34 PM 40.8589 -75.9867 109° East 450 518 15,300 -1,820 Descending New York Center
Sat 05:08:36 PM 40.8167 -75.8108 108° East 433 498 13,300 -1,200 Descending New York Center
Sat 05:09:34 PM 40.7847 -75.6797 108° East 428 493 12,900 -661 Descending New York Center
Sat 05:10:34 PM 40.7467 -75.5372 109° East 417 480 12,000 -893 Descending New York Center
Sat 05:11:35 PM 40.7114 -75.3786 106° East 417 480 11,100 -843 Descending New York Center
Sat 05:12:35 PM 40.6836 -75.2344 104° East 408 470 10,300 -550 Descending New York Center
Sat 05:13:35 PM 40.6442 -75.1169 114° Southeast 401 461 10,000 -150 Descending New York Center
Sat 05:14:35 PM 40.5747 -75.0169 132° Southeast 358 412 10,000  Level New York Center
Sat 05:15:49 PM 40.5333 -74.8667 110° East 337 388 10,000 -86 Level New York TRACON
Sat 05:16:55 PM 40.4833 -74.7500 119° Southeast 338 389 9,800 -500 Descending New York TRACON
Sat 05:17:49 PM 40.4333 -74.6667 128° Southeast 321 369 9,000 -850 Descending New York TRACON
Sat 05:18:55 PM 40.3500 -74.6000 149° Southeast 320 368 8,100 -500 Descending New York TRACON
Sat 05:19:49 PM 40.3000 -74.5167 128° Southeast 325 374 8,000 -105 Descending New York TRACON
Sat 05:20:49 PM 40.3167 -74.4000 79° East 322 371 7,900 -336 Descending New York TRACON
Sat 05:21:36 PM 40.3450 -74.3464 55° Northeast 263 303 7,400 -849 Descending New York Center
Sat 05:22:35 PM 40.4094 -74.2764 40° Northeast 263 303 6,400 -1,063 Descending New York Center
Sat 05:22:55 PM 40.4333 -74.2500 40° Northeast 283 326 6,000 -1,125 Descending New York TRACON
Sat 05:23:55 PM 40.5000 -74.1833 37° Northeast 278 320 4,900 -1,000 Descending New York TRACON
Sat 05:24:55 PM 40.5500 -74.1167 45° Northeast 274 315 4,000 -450 Descending New York TRACON
Sat 05:25:55 PM 40.6167 -74.0667 30° Northeast 258 297 4,000  Level New York TRACON
Sat 05:26:55 PM 40.6667 -74.0333 27° Northeast 198 228 4,000  Level New York TRACON
Sat 05:27:55 PM 40.7167 -74.0333 360° North 192 221 4,000  Level New York TRACON
Sat 05:28:55 PM 40.7667 -74.0000 27° Northeast 197 227 4,000  Level New York TRACON
Sat 05:29:55 PM 40.8167 -73.9667 27° Northeast 194 223 4,000  Level New York TRACON
Sat 05:30:55 PM 40.8667 -73.9333 27° Northeast 197 227 4,000 -300 Level New York TRACON
Sat 05:31:55 PM 40.9167 -73.9167 14° North 196 226 3,400 -500 Descending New York TRACON
Sat 05:32:55 PM 40.9500 -73.8667 49° Northeast 203 234 3,000 -300 Descending New York TRACON
Sat 05:33:55 PM 40.9500 -73.8000 90° East 207 238 2,800 -400 Descending New York TRACON
Sat 05:34:55 PM 40.9167 -73.7500 131° Southeast 189 217 2,200 -600 Descending New York TRACON

Login

Don't have an account? Register now (free) for customized features, flight alerts, and more!